createdAt,value
2018-06-20T00:00:59.803Z,0.30
2018-06-20T00:04:05.820Z,0.20
2018-06-20T00:07:10.635Z,0.30
2018-06-20T00:10:16.447Z,0.20
2018-06-20T00:13:22.200Z,0.30
2018-06-20T00:16:27.621Z,0.30
2018-06-20T00:19:32.708Z,0.30
2018-06-20T00:22:38.716Z,0.20
2018-06-20T00:25:44.105Z,0.30
2018-06-20T00:28:49.165Z,0.30
2018-06-20T00:31:54.920Z,0.30
2018-06-20T00:34:59.991Z,0.20
2018-06-20T00:38:05.724Z,0.30
2018-06-20T00:41:10.849Z,0.93
2018-06-20T00:44:16.540Z,0.30
2018-06-20T00:47:22.399Z,0.20
2018-06-20T00:50:27.440Z,0.30
2018-06-20T00:53:32.864Z,0.30
2018-06-20T00:56:38.302Z,0.20
2018-06-20T00:59:44.396Z,0.30
2018-06-20T01:02:50.281Z,0.30
2018-06-20T01:05:55.433Z,0.20
2018-06-20T01:09:01.205Z,0.30
2018-06-20T01:12:07.948Z,0.20
2018-06-20T01:15:14.093Z,0.30
2018-06-20T01:18:20.238Z,0.30
2018-06-20T01:21:25.064Z,0.20
2018-06-20T01:24:30.880Z,0.30
2018-06-20T01:27:36.119Z,0.20
2018-06-20T01:30:42.593Z,0.30
2018-06-20T01:33:47.707Z,0.30
2018-06-20T01:36:53.320Z,0.20
2018-06-20T01:39:58.396Z,0.20
2018-06-20T01:43:03.484Z,0.20
2018-06-20T01:46:08.611Z,0.20
2018-06-20T01:49:14.744Z,0.20
2018-06-20T01:52:20.537Z,0.20
2018-06-20T01:55:27.014Z,0.30
2018-06-20T01:58:33.108Z,0.20
2018-06-20T02:01:39.490Z,0.20
2018-06-20T02:04:44.578Z,0.60
2018-06-20T02:07:50.073Z,0.20
2018-06-20T02:10:57.157Z,0.20
2018-06-20T02:14:02.817Z,0.30
2018-06-20T02:17:08.820Z,0.20
2018-06-20T02:20:14.726Z,0.20
2018-06-20T02:23:20.761Z,0.20
2018-06-20T02:26:26.589Z,0.30
2018-06-20T02:29:32.009Z,0.30
2018-06-20T02:32:37.266Z,0.20
2018-06-20T02:35:42.353Z,0.37
2018-06-20T02:38:47.181Z,0.30
2018-06-20T02:41:52.303Z,0.30
2018-06-20T02:44:57.928Z,0.50
2018-06-20T02:48:04.612Z,0.20
2018-06-20T02:51:10.595Z,0.40
2018-06-20T02:54:16.421Z,0.33
2018-06-20T02:57:21.522Z,0.20
2018-06-20T03:00:26.657Z,0.40
2018-06-20T03:03:32.297Z,0.30
2018-06-20T03:06:39.039Z,0.60
2018-06-20T03:09:44.929Z,0.40
2018-06-20T03:12:51.483Z,0.20
2018-06-20T03:15:57.997Z,0.30
2018-06-20T03:19:05.305Z,0.30
2018-06-20T03:22:11.030Z,0.50
2018-06-20T03:25:16.136Z,0.30
2018-06-20T03:28:20.993Z,0.20
2018-06-20T03:31:26.101Z,0.30
2018-06-20T03:34:32.305Z,0.20
2018-06-20T03:37:38.641Z,0.20
2018-06-20T03:40:44.537Z,0.40
2018-06-20T03:43:49.641Z,0.40
2018-06-20T03:46:55.744Z,0.20
2018-06-20T03:50:01.788Z,0.30
2018-06-20T03:53:08.795Z,0.30
2018-06-20T03:56:13.908Z,0.30
2018-06-20T03:59:19.530Z,0.27
2018-06-20T04:02:24.696Z,0.20
2018-06-20T04:05:30.784Z,0.20
2018-06-20T04:08:35.612Z,0.30
2018-06-20T04:11:41.669Z,0.20
2018-06-20T04:14:47.625Z,0.20
2018-06-20T04:17:53.981Z,0.30
2018-06-20T04:20:59.681Z,0.37
2018-06-20T04:24:05.993Z,0.20
2018-06-20T04:27:12.673Z,0.20
2018-06-20T04:30:18.741Z,0.30
2018-06-20T04:33:24.777Z,0.40
2018-06-20T04:36:30.181Z,0.20
2018-06-20T04:39:35.733Z,0.20
2018-06-20T04:42:42.369Z,0.40
2018-06-20T04:45:49.543Z,0.37
2018-06-20T04:48:55.269Z,0.30
2018-06-20T04:52:00.557Z,0.20
2018-06-20T04:55:05.965Z,0.40
2018-06-20T04:58:14.016Z,0.20
2018-06-20T05:01:19.764Z,0.30
2018-06-20T05:04:24.892Z,0.20
2018-06-20T05:07:30.026Z,0.30
2018-06-20T05:10:35.112Z,0.30
2018-06-20T05:13:40.853Z,0.30
2018-06-20T05:16:46.699Z,0.30
2018-06-20T05:19:52.871Z,0.30
2018-06-20T05:22:57.964Z,0.30
2018-06-20T05:26:05.012Z,0.30
2018-06-20T05:29:10.873Z,0.30
2018-06-20T05:32:15.974Z,0.30
2018-06-20T05:35:21.282Z,0.20
2018-06-20T05:38:26.862Z,0.40
2018-06-20T05:41:33.399Z,0.30
2018-06-20T05:44:39.463Z,0.20
2018-06-20T05:47:44.567Z,0.20
2018-06-20T05:50:50.416Z,0.30
2018-06-20T05:53:56.227Z,0.20
2018-06-20T05:57:02.245Z,0.30
2018-06-20T06:00:09.048Z,0.40
2018-06-20T06:03:13.893Z,0.37
2018-06-20T06:06:19.621Z,0.20
2018-06-20T06:09:24.748Z,0.30
2018-06-20T06:12:30.418Z,0.30
2018-06-20T06:15:36.060Z,0.30
2018-06-20T06:18:41.352Z,0.30
2018-06-20T06:21:47.405Z,0.40
2018-06-20T06:24:53.834Z,0.30
2018-06-20T06:27:59.703Z,0.30
2018-06-20T06:31:06.040Z,0.30
2018-06-20T06:34:11.770Z,0.30
2018-06-20T06:37:17.313Z,0.20
2018-06-20T06:40:23.438Z,0.30
2018-06-20T06:43:30.317Z,0.40
2018-06-20T06:46:36.221Z,0.20
2018-06-20T06:49:42.063Z,0.30
2018-06-20T06:52:48.972Z,0.30
2018-06-20T06:55:54.987Z,0.20
2018-06-20T06:59:00.957Z,0.20
2018-06-20T07:02:06.969Z,0.40
2018-06-20T07:05:12.381Z,0.30
2018-06-20T07:08:18.189Z,0.27
2018-06-20T07:11:23.365Z,0.27
2018-06-20T07:14:28.193Z,0.20
2018-06-20T07:17:33.825Z,0.37
2018-06-20T07:20:38.965Z,0.30
2018-06-20T07:23:45.004Z,0.40
2018-06-20T07:26:51.134Z,0.50
2018-06-20T07:29:58.330Z,0.50
2018-06-20T07:33:04.290Z,0.40
2018-06-20T07:36:10.184Z,0.87
2018-06-20T07:39:17.085Z,0.50
2018-06-20T07:42:22.863Z,0.57
2018-06-20T07:45:28.113Z,0.30
2018-06-20T07:48:34.251Z,0.60
2018-06-20T07:51:39.361Z,0.80
2018-06-20T07:54:45.221Z,0.53
2018-06-20T07:57:50.320Z,0.67
2018-06-20T08:01:01.392Z,0.40
2018-06-20T08:04:13.860Z,0.30
2018-06-20T08:07:24.363Z,0.40
2018-06-20T08:10:34.901Z,0.30
2018-06-20T08:13:45.782Z,0.40
2018-06-20T08:19:03.045Z,0.50
2018-06-20T08:22:08.065Z,0.60
2018-06-20T08:25:13.218Z,0.30
2018-06-20T08:28:19.657Z,0.63
2018-06-20T08:31:25.557Z,0.60
2018-06-20T08:34:30.673Z,0.73
2018-06-20T08:37:35.925Z,0.30
2018-06-20T08:40:41.164Z,0.40
2018-06-20T08:43:45.993Z,0.40
2018-06-20T08:46:51.454Z,0.33
2018-06-20T08:49:56.449Z,0.40
2018-06-20T08:53:01.606Z,0.50
2018-06-20T08:56:06.846Z,0.50
2018-06-20T08:59:11.677Z,0.50
2018-06-20T09:02:19.173Z,0.40
2018-06-20T09:05:29.886Z,0.67
2018-06-20T09:08:41.129Z,0.50
2018-06-20T09:11:52.781Z,0.40
2018-06-20T09:15:03.785Z,0.37
2018-06-20T09:18:14.513Z,0.50
2018-06-20T09:21:20.117Z,0.40
2018-06-20T09:24:26.340Z,0.50
2018-06-20T09:27:32.322Z,0.40
2018-06-20T09:30:38.333Z,0.47
2018-06-20T09:33:44.296Z,0.30
2018-06-20T09:36:49.443Z,0.40
2018-06-20T09:39:54.613Z,0.40
2018-06-20T09:43:00.499Z,0.40
2018-06-20T09:46:06.948Z,0.40
2018-06-20T09:49:13.121Z,0.60
2018-06-20T09:52:18.765Z,0.60
2018-06-20T09:55:24.436Z,0.50
2018-06-20T09:58:29.864Z,0.40
2018-06-20T10:01:42.607Z,0.50
2018-06-20T10:04:53.045Z,0.50
2018-06-20T10:08:04.481Z,1.10
2018-06-20T10:11:16.099Z,0.40
2018-06-20T10:14:22.075Z,0.50
2018-06-20T10:17:27.193Z,0.53
2018-06-20T10:20:32.359Z,0.77
2018-06-20T10:23:38.672Z,0.60
2018-06-20T10:26:44.482Z,0.40
2018-06-20T10:29:51.512Z,0.60
2018-06-20T10:32:57.501Z,0.83
2018-06-20T10:36:02.317Z,0.70
2018-06-20T10:39:08.859Z,0.50
2018-06-20T10:42:14.801Z,0.30
2018-06-20T10:45:25.348Z,0.50
2018-06-20T10:48:30.917Z,0.57
2018-06-20T10:51:35.769Z,0.87
2018-06-20T10:54:41.017Z,0.70
2018-06-20T10:57:52.249Z,0.30
2018-06-20T11:01:03.890Z,0.57
2018-06-20T11:04:13.961Z,0.50
2018-06-20T11:07:24.393Z,0.60
2018-06-20T11:10:35.058Z,0.50
2018-06-20T11:13:41.024Z,0.67
2018-06-20T11:16:47.137Z,0.50
2018-06-20T11:19:53.200Z,0.43
2018-06-20T11:22:58.356Z,0.37
2018-06-20T11:26:03.525Z,0.40
2018-06-20T11:29:08.773Z,0.63
2018-06-20T11:32:14.965Z,0.70
2018-06-20T11:35:22.121Z,0.43
2018-06-20T11:38:28.613Z,0.40
2018-06-20T11:41:33.696Z,0.40
2018-06-20T11:44:39.074Z,0.40
2018-06-20T11:47:46.390Z,0.40
2018-06-20T11:50:51.258Z,0.40
2018-06-20T11:53:56.653Z,0.60
2018-06-20T11:57:01.488Z,0.50
2018-06-20T12:00:12.006Z,0.60
2018-06-20T12:03:23.170Z,0.30
2018-06-20T12:06:33.683Z,0.47
2018-06-20T12:09:44.461Z,0.43
2018-06-20T12:12:55.276Z,0.73
2018-06-20T12:16:06.097Z,0.40
2018-06-20T12:19:17.354Z,0.57
2018-06-20T12:22:29.182Z,0.70
2018-06-20T12:25:40.761Z,0.67
2018-06-20T12:28:51.797Z,0.30
2018-06-20T12:32:02.342Z,0.40
2018-06-20T12:35:12.906Z,0.30
2018-06-20T12:38:23.395Z,0.40
2018-06-20T12:41:36.433Z,0.60
2018-06-20T12:44:48.460Z,1.50
2018-06-20T12:47:56.852Z,1.47
2018-06-20T12:51:02.634Z,1.97
2018-06-20T12:54:08.622Z,2.00
2018-06-20T12:57:14.637Z,2.03
2018-06-20T13:00:20.413Z,1.67
2018-06-20T13:03:25.553Z,1.80
2018-06-20T13:06:31.584Z,2.43
2018-06-20T13:09:37.426Z,1.90
2018-06-20T13:12:42.517Z,1.43
2018-06-20T13:15:47.965Z,1.67
2018-06-20T13:18:59.414Z,1.47
2018-06-20T13:22:05.942Z,1.63
2018-06-20T13:25:11.017Z,2.00
2018-06-20T13:28:17.072Z,1.40
2018-06-20T13:31:27.568Z,1.73
2018-06-20T13:34:39.084Z,1.70
2018-06-20T13:37:51.355Z,2.03
2018-06-20T13:41:02.316Z,1.83
2018-06-20T13:44:08.877Z,1.63
2018-06-20T13:47:19.905Z,1.47
2018-06-20T13:50:26.736Z,2.43
2018-06-20T13:53:32.713Z,1.17
2018-06-20T13:56:38.550Z,1.27
2018-06-20T13:59:44.401Z,1.60
2018-06-20T14:02:50.098Z,1.53
2018-06-20T14:05:55.211Z,1.50
2018-06-20T14:09:01.341Z,1.90
2018-06-20T14:12:06.188Z,1.33
2018-06-20T14:15:11.001Z,1.00
2018-06-20T14:18:16.580Z,1.60
2018-06-20T14:21:28.663Z,1.13
2018-06-20T14:24:34.030Z,1.17
2018-06-20T14:27:39.153Z,0.90
2018-06-20T14:30:50.080Z,0.90
2018-06-20T14:34:00.610Z,0.83
2018-06-20T14:39:16.112Z,0.70
2018-06-20T14:42:28.098Z,0.80
2018-06-20T14:45:38.930Z,1.20
2018-06-20T14:48:44.447Z,0.80
2018-06-20T14:51:50.473Z,0.70
2018-06-20T14:54:56.383Z,0.73
2018-06-20T14:58:02.269Z,0.70
2018-06-20T15:01:07.727Z,1.20
2018-06-20T15:04:13.662Z,0.80
2018-06-20T15:07:18.989Z,0.80
2018-06-20T15:10:24.124Z,0.77
2018-06-20T15:13:29.470Z,0.70
2018-06-20T15:16:41.830Z,0.63
2018-06-20T15:19:46.928Z,0.90
2018-06-20T15:22:52.167Z,1.07
2018-06-20T15:26:02.645Z,0.93
2018-06-20T15:29:13.886Z,0.80
2018-06-20T15:32:24.922Z,0.83
2018-06-20T15:35:35.944Z,0.83
2018-06-20T15:38:41.544Z,1.13
2018-06-20T15:41:47.679Z,0.90
2018-06-20T15:44:52.744Z,1.17
2018-06-20T15:47:59.397Z,0.60
2018-06-20T15:51:04.559Z,0.93
2018-06-20T15:54:10.729Z,0.80
2018-06-20T15:57:16.794Z,0.97
2018-06-20T16:00:21.937Z,0.97
2018-06-20T16:03:29.545Z,0.90
2018-06-20T16:06:34.773Z,1.00
2018-06-20T16:09:45.388Z,0.80
2018-06-20T16:12:51.701Z,0.80
2018-06-20T16:15:56.801Z,1.00
2018-06-20T16:19:06.983Z,1.10
2018-06-20T16:22:18.101Z,0.80
2018-06-20T16:25:28.963Z,0.90
2018-06-20T16:28:41.135Z,1.00
2018-06-20T16:31:46.247Z,0.90
2018-06-20T16:34:51.546Z,0.83
2018-06-20T16:37:56.715Z,1.17
2018-06-20T16:41:01.755Z,0.80
2018-06-20T16:44:06.520Z,1.10
2018-06-20T16:47:11.659Z,1.07
2018-06-20T16:50:16.762Z,0.80
2018-06-20T16:53:23.401Z,1.37
2018-06-20T16:56:30.300Z,1.00
2018-06-20T16:59:37.316Z,0.80
2018-06-20T17:02:44.388Z,1.00
2018-06-20T17:05:49.963Z,1.10
2018-06-20T17:08:56.318Z,1.00
2018-06-20T17:12:06.858Z,0.70
2018-06-20T17:15:19.283Z,1.17
2018-06-20T17:18:30.715Z,0.83
2018-06-20T17:21:41.052Z,0.80
2018-06-20T17:24:52.259Z,0.80
2018-06-20T17:27:57.574Z,0.97
2018-06-20T17:31:03.913Z,0.90
2018-06-20T17:34:10.050Z,1.00
2018-06-20T17:37:16.174Z,1.20
2018-06-20T17:40:22.716Z,0.67
2018-06-20T17:43:30.008Z,0.77
2018-06-20T17:46:36.001Z,1.00
2018-06-20T17:49:41.094Z,0.70
2018-06-20T17:52:46.205Z,0.67
2018-06-20T17:55:51.386Z,1.10
2018-06-20T17:58:56.370Z,0.63
2018-06-20T18:02:02.298Z,0.70
2018-06-20T18:05:13.771Z,0.80
2018-06-20T18:08:24.329Z,0.87
2018-06-20T18:11:35.347Z,0.97
2018-06-20T18:14:46.169Z,0.50
2018-06-20T18:17:51.288Z,0.70
2018-06-20T18:20:56.403Z,0.83
2018-06-20T18:24:01.611Z,0.50
2018-06-20T18:27:06.473Z,0.60
2018-06-20T18:30:13.384Z,0.77
2018-06-20T18:33:19.115Z,0.90
2018-06-20T18:36:25.218Z,0.80
2018-06-20T18:39:36.301Z,0.80
2018-06-20T18:42:43.806Z,0.63
2018-06-20T18:45:48.914Z,0.90
2018-06-20T18:48:54.064Z,0.60
2018-06-20T18:51:59.824Z,0.87
2018-06-20T18:55:05.483Z,0.60
2018-06-20T18:58:16.910Z,0.60
2018-06-20T19:01:28.125Z,0.83
2018-06-20T19:04:38.257Z,0.83
2018-06-20T19:07:49.767Z,0.80
2018-06-20T19:10:55.702Z,0.77
2018-06-20T19:14:00.844Z,1.03
2018-06-20T19:17:06.943Z,1.50
2018-06-20T19:20:12.783Z,1.03
2018-06-20T19:23:18.210Z,1.43
2018-06-20T19:26:23.084Z,1.83
2018-06-20T19:29:27.896Z,1.73
2018-06-20T19:32:33.551Z,2.37
2018-06-20T19:35:39.334Z,2.60
2018-06-20T19:38:44.413Z,1.70
2018-06-20T19:41:49.542Z,2.10
2018-06-20T19:44:54.532Z,1.90
2018-06-20T19:48:00.436Z,1.90
2018-06-20T19:51:05.579Z,1.83
2018-06-20T19:54:10.439Z,1.90
2018-06-20T19:57:17.071Z,2.30
2018-06-20T20:00:23.560Z,2.20
2018-06-20T20:03:29.392Z,2.13
2018-06-20T20:06:35.329Z,2.20
2018-06-20T20:09:41.049Z,2.20
2018-06-20T20:12:46.794Z,2.90
2018-06-20T20:15:52.594Z,2.10
2018-06-20T20:18:58.124Z,1.73
2018-06-20T20:22:03.267Z,1.90
2018-06-20T20:25:08.411Z,2.40
2018-06-20T20:28:14.401Z,1.43
2018-06-20T20:31:20.133Z,2.50
2018-06-20T20:34:26.900Z,2.50
2018-06-20T20:37:32.055Z,1.90
2018-06-20T20:40:38.833Z,2.17
2018-06-20T20:43:44.321Z,2.67
2018-06-20T20:46:49.481Z,1.97
2018-06-20T20:49:54.850Z,1.70
2018-06-20T20:52:59.684Z,2.37
2018-06-20T20:56:05.506Z,1.97
2018-06-20T20:59:11.749Z,1.77
2018-06-20T21:02:16.869Z,1.73
2018-06-20T21:05:21.992Z,2.60
2018-06-20T21:08:27.240Z,2.20
2018-06-20T21:11:33.117Z,1.70
2018-06-20T21:14:38.238Z,1.53
2018-06-20T21:17:43.801Z,1.70
2018-06-20T21:20:49.841Z,1.70
2018-06-20T21:23:56.355Z,1.27
2018-06-20T21:27:01.886Z,1.73
2018-06-20T21:30:07.610Z,1.67
2018-06-20T21:33:13.269Z,2.20
2018-06-20T21:36:19.658Z,1.97
2018-06-20T21:39:24.770Z,2.00
2018-06-20T21:42:30.641Z,2.40
2018-06-20T21:45:36.995Z,2.17
2018-06-20T21:48:42.517Z,1.80
2018-06-20T21:51:47.709Z,2.43
2018-06-20T21:54:53.749Z,2.37
2018-06-20T21:57:59.898Z,1.57
2018-06-20T22:01:05.698Z,1.60
2018-06-20T22:04:11.572Z,2.10
2018-06-20T22:07:17.303Z,1.40
2018-06-20T22:10:22.951Z,2.00
2018-06-20T22:13:28.029Z,1.43
2018-06-20T22:16:34.466Z,1.77
2018-06-20T22:19:40.125Z,1.50
2018-06-20T22:22:45.230Z,1.00
2018-06-20T22:25:51.268Z,1.43
2018-06-20T22:28:56.623Z,0.77
2018-06-20T22:32:02.528Z,1.07
2018-06-20T22:35:07.325Z,2.00
2018-06-20T22:38:12.897Z,1.60
2018-06-20T22:41:17.753Z,0.93
2018-06-20T22:44:23.041Z,1.30
2018-06-20T22:47:28.133Z,0.80
2018-06-20T22:50:33.937Z,1.40
2018-06-20T22:53:39.032Z,1.57
2018-06-20T22:56:44.859Z,1.03
2018-06-20T22:59:50.676Z,0.97
2018-06-20T23:02:56.635Z,1.50
2018-06-20T23:06:01.449Z,1.30
2018-06-20T23:09:08.326Z,1.07
2018-06-20T23:12:13.528Z,1.40
2018-06-20T23:15:19.593Z,1.20
2018-06-20T23:18:27.413Z,1.60
2018-06-20T23:21:33.163Z,0.83
2018-06-20T23:24:39.213Z,1.27
2018-06-20T23:27:44.297Z,1.70
2018-06-20T23:30:50.389Z,1.20
2018-06-20T23:33:57.577Z,1.00
2018-06-20T23:37:03.908Z,1.20
2018-06-20T23:40:09.809Z,1.40
2018-06-20T23:43:14.681Z,1.50
2018-06-20T23:46:19.511Z,1.63
2018-06-20T23:49:25.106Z,1.30
2018-06-20T23:52:31.086Z,0.93
2018-06-20T23:55:36.209Z,0.90
2018-06-20T23:58:41.308Z,1.30
